Time;durP1;ratioP1;P1;durP2;ratioP2;P2;SDS_P1;SDS_P2;PMS_P1;PMS_P2;Temp;Humidity;BMP_temperature;BMP_pressure;BME280_temperature;BME280_humidity;BME280_pressure;Samples;Min_cycle;Max_cycle;Signal;HPM_P1;HPM_P2
2022/03/24 00:00:39;;;;;;;154.05;53.85;;;;;;;;;;4823225;29;20066;-87
2022/03/24 00:03:25;;;;;;;150.63;48.97;;;;;;;;;;4813430;29;20494;-87
2022/03/24 00:06:10;;;;;;;107.25;39.55;;;;;;;;;;4818341;29;20050;-85
2022/03/24 00:08:55;;;;;;;192.60;64.70;;;;;;;;;;4832669;29;20047;-85
2022/03/24 00:11:41;;;;;;;167.40;55.63;;;;;;;;;;4813290;29;20483;-84
2022/03/24 00:14:27;;;;;;;194.75;64.20;;;;;;;;;;4817615;29;20042;-87
2022/03/24 00:17:12;;;;;;;125.80;43.05;;;;;;;;;;4816972;29;20502;-86
2022/03/24 00:19:58;;;;;;;107.38;39.17;;;;;;;;;;4817947;29;20042;-86
2022/03/24 00:22:43;;;;;;;60.10;26.00;;;;;;;;;;4811972;29;20050;-84
2022/03/24 00:25:29;;;;;;;24.38;12.07;;;;;;;;;;4798870;29;20043;-86
2022/03/24 00:28:15;;;;;;;38.00;14.45;;;;;;;;;;4809381;29;20058;-87
2022/03/24 00:31:02;;;;;;;40.72;15.00;;;;;;;;;;4818745;29;20046;-86
2022/03/24 00:33:48;;;;;;;28.25;12.98;;;;;;;;;;4819066;29;20046;-86
2022/03/24 00:36:34;;;;;;;30.05;12.75;;;;;;;;;;4818411;29;20047;-85
2022/03/24 00:39:19;;;;;;;37.25;16.45;;;;;;;;;;4799103;29;20407;-85
2022/03/24 00:42:08;;;;;;;66.65;24.92;;;;;;;;;;4818205;29;20054;-86
2022/03/24 00:44:53;;;;;;;44.88;19.77;;;;;;;;;;4818334;29;20054;-86
2022/03/24 00:47:42;;;;;;;43.78;17.90;;;;;;;;;;4812759;29;20050;-85
2022/03/24 00:50:28;;;;;;;48.90;19.58;;;;;;;;;;4787825;29;20054;-87
2022/03/24 00:53:13;;;;;;;48.53;19.15;;;;;;;;;;4818550;29;20398;-86
2022/03/24 00:55:59;;;;;;;36.15;16.15;;;;;;;;;;4817443;29;20410;-86
2022/03/24 00:58:45;;;;;;;49.13;20.95;;;;;;;;;;4808436;29;20042;-85
2022/03/24 01:01:31;;;;;;;41.85;18.23;;;;;;;;;;4807854;29;20054;-86
2022/03/24 01:04:16;;;;;;;38.45;15.70;;;;;;;;;;4815221;29;20046;-84
2022/03/24 01:07:03;;;;;;;54.53;22.10;;;;;;;;;;4807698;29;20043;-86
2022/03/24 01:09:48;;;;;;;62.30;24.85;;;;;;;;;;4808306;29;20482;-85
2022/03/24 01:12:34;;;;;;;49.30;20.23;;;;;;;;;;4821086;29;20050;-84
2022/03/24 01:15:22;;;;;;;47.90;16.50;;;;;;;;;;4808798;29;20050;-85
2022/03/24 01:18:07;;;;;;;28.48;13.02;;;;;;;;;;4821374;29;20410;-87
2022/03/24 01:20:54;;;;;;;23.73;10.70;;;;;;;;;;4808583;29;20421;-85
2022/03/24 01:23:39;;;;;;;26.70;11.55;;;;;;;;;;4807385;29;20046;-85
2022/03/24 01:26:25;;;;;;;20.75;10.02;;;;;;;;;;4819966;29;20046;-84
2022/03/24 01:29:11;;;;;;;23.15;9.38;;;;;;;;;;4819790;29;20058;-84
2022/03/24 01:31:57;;;;;;;20.90;10.25;;;;;;;;;;4807166;29;20046;-87
2022/03/24 01:34:43;;;;;;;16.42;8.57;;;;;;;;;;4819652;29;20050;-86
2022/03/24 01:37:28;;;;;;;22.85;9.43;;;;;;;;;;4827044;29;20046;-86
2022/03/24 01:40:14;;;;;;;23.77;8.90;;;;;;;;;;4806817;29;20054;-84
2022/03/24 01:43:00;;;;;;;20.05;9.30;;;;;;;;;;4806907;29;20046;-87
2022/03/24 01:45:48;;;;;;;17.67;8.73;;;;;;;;;;4819581;29;20046;-86
2022/03/24 01:48:32;;;;;;;22.75;9.25;;;;;;;;;;4806900;29;20486;-86
2022/03/24 01:51:18;;;;;;;29.10;9.95;;;;;;;;;;4812804;29;20050;-87
2022/03/24 01:54:05;;;;;;;22.17;10.60;;;;;;;;;;4830921;29;20399;-85
2022/03/24 01:56:52;;;;;;;21.58;10.65;;;;;;;;;;4819712;29;20088;-87
2022/03/24 01:59:40;;;;;;;20.30;10.43;;;;;;;;;;4819543;29;20046;-83
2022/03/24 02:02:26;;;;;;;21.83;9.80;;;;;;;;;;4818947;29;20050;-86
2022/03/24 02:05:11;;;;;;;15.57;8.93;;;;;;;;;;4818374;29;20054;-84
2022/03/24 02:08:03;;;;;;;20.88;9.20;;;;;;;;;;4809677;29;20050;-84
2022/03/24 02:10:48;;;;;;;24.92;10.77;;;;;;;;;;4810110;29;20042;-85
2022/03/24 02:13:35;;;;;;;22.15;9.77;;;;;;;;;;4822950;29;20058;-84
2022/03/24 02:16:25;;;;;;;18.25;9.82;;;;;;;;;;4836057;29;20046;-85
2022/03/24 02:19:21;;;;;;;18.75;9.02;;;;;;;;;;4809879;29;20058;-85
2022/03/24 02:22:12;;;;;;;21.45;10.10;;;;;;;;;;4822998;29;20038;-84
2022/03/24 02:24:57;;;;;;;22.75;9.32;;;;;;;;;;4810839;29;20046;-84
2022/03/24 02:27:47;;;;;;;22.27;10.32;;;;;;;;;;4810078;29;20042;-85
2022/03/24 02:30:33;;;;;;;25.13;9.70;;;;;;;;;;4811078;29;20046;-84
2022/03/24 02:33:24;;;;;;;21.45;10.48;;;;;;;;;;4811135;29;20050;-85
2022/03/24 02:36:09;;;;;;;25.88;11.40;;;;;;;;;;4810529;29;20050;-84
2022/03/24 02:38:55;;;;;;;23.08;11.13;;;;;;;;;;4810947;29;20399;-83
2022/03/24 02:41:51;;;;;;;27.95;11.52;;;;;;;;;;4809812;29;20050;-85
2022/03/24 02:44:36;;;;;;;29.70;10.55;;;;;;;;;;4818472;29;20399;-86
2022/03/24 02:47:23;;;;;;;28.50;11.48;;;;;;;;;;4816637;29;20050;-85
2022/03/24 02:50:09;;;;;;;28.20;12.20;;;;;;;;;;4822919;29;20054;-86
2022/03/24 02:52:54;;;;;;;31.55;13.20;;;;;;;;;;4824605;29;20390;-85
2022/03/24 02:55:39;;;;;;;28.02;12.13;;;;;;;;;;4817243;29;20042;-85
2022/03/24 02:58:24;;;;;;;27.42;11.52;;;;;;;;;;4811396;29;20054;-84
2022/03/24 03:01:11;;;;;;;31.55;11.93;;;;;;;;;;4823563;29;20047;-86
2022/03/24 03:03:56;;;;;;;30.58;11.38;;;;;;;;;;4822797;29;20049;-86
2022/03/24 03:06:42;;;;;;;21.90;11.73;;;;;;;;;;4835104;29;20050;-86
2022/03/24 03:09:30;;;;;;;22.50;11.52;;;;;;;;;;4822076;29;20482;-86
2022/03/24 03:12:16;;;;;;;24.35;10.93;;;;;;;;;;4836435;29;20043;-85
2022/03/24 03:15:03;;;;;;;20.05;10.73;;;;;;;;;;4810263;29;20470;-86
2022/03/24 03:17:48;;;;;;;22.50;10.68;;;;;;;;;;4809328;29;20041;-85
2022/03/24 03:20:36;;;;;;;24.20;11.43;;;;;;;;;;4823093;29;20058;-86
2022/03/24 03:23:21;;;;;;;23.05;10.68;;;;;;;;;;4822499;29;20050;-85
2022/03/24 03:26:11;;;;;;;26.65;10.50;;;;;;;;;;4823409;29;20420;-85
2022/03/24 03:28:56;;;;;;;23.25;10.52;;;;;;;;;;4816891;29;20478;-86
2022/03/24 03:31:42;;;;;;;26.88;10.43;;;;;;;;;;4824661;29;20046;-84
2022/03/24 03:34:28;;;;;;;19.30;9.38;;;;;;;;;;4811556;29;20054;-85
2022/03/24 03:37:14;;;;;;;20.77;9.82;;;;;;;;;;4810955;29;20042;-84
2022/03/24 03:39:59;;;;;;;22.65;10.20;;;;;;;;;;4811061;29;20054;-86
2022/03/24 03:42:45;;;;;;;21.67;9.75;;;;;;;;;;4822288;29;20054;-86
2022/03/24 03:45:30;;;;;;;32.83;11.98;;;;;;;;;;4821900;29;20486;-84
2022/03/24 03:48:16;;;;;;;27.65;12.13;;;;;;;;;;4821746;29;20051;-86
2022/03/24 03:51:02;;;;;;;31.08;12.13;;;;;;;;;;4809109;29;20408;-86
2022/03/24 03:53:48;;;;;;;34.67;12.88;;;;;;;;;;4815368;29;20058;-85
2022/03/24 03:56:34;;;;;;;24.52;11.27;;;;;;;;;;4816044;29;20058;-85
2022/03/24 03:59:19;;;;;;;32.50;12.93;;;;;;;;;;4808281;29;20440;-85
2022/03/24 04:02:04;;;;;;;24.67;12.23;;;;;;;;;;4808154;29;20050;-84
2022/03/24 04:04:50;;;;;;;32.33;11.27;;;;;;;;;;4808290;29;20483;-86
2022/03/24 04:07:36;;;;;;;27.15;11.10;;;;;;;;;;4808657;29;20047;-85
2022/03/24 04:10:22;;;;;;;23.98;11.30;;;;;;;;;;4822214;29;20406;-85
2022/03/24 04:13:07;;;;;;;32.38;12.68;;;;;;;;;;4822165;29;20051;-86
2022/03/24 04:15:54;;;;;;;38.00;14.43;;;;;;;;;;4821208;29;20054;-86
2022/03/24 04:18:46;;;;;;;42.65;14.05;;;;;;;;;;4821308;29;20065;-85
2022/03/24 04:21:31;;;;;;;32.90;12.82;;;;;;;;;;4808092;29;20054;-85
2022/03/24 04:24:16;;;;;;;27.60;11.38;;;;;;;;;;4806877;29;20050;-85
2022/03/24 04:27:02;;;;;;;23.30;9.55;;;;;;;;;;4821139;29;20050;-85
2022/03/24 04:29:47;;;;;;;25.08;10.07;;;;;;;;;;4820731;29;20050;-83
2022/03/24 04:32:33;;;;;;;20.80;9.95;;;;;;;;;;4809628;29;20054;-83
2022/03/24 04:35:19;;;;;;;28.00;11.45;;;;;;;;;;4820342;29;20050;-83
2022/03/24 04:38:07;;;;;;;23.95;10.63;;;;;;;;;;4809609;29;20050;-85
2022/03/24 04:40:54;;;;;;;32.65;11.68;;;;;;;;;;4820613;29;20054;-85
2022/03/24 04:43:41;;;;;;;25.15;11.05;;;;;;;;;;4821332;29;20050;-84
2022/03/24 04:46:26;;;;;;;24.98;12.13;;;;;;;;;;4820928;29;20043;-86
2022/03/24 04:49:12;;;;;;;24.23;11.82;;;;;;;;;;4821064;29;20058;-85
2022/03/24 04:51:58;;;;;;;34.88;13.80;;;;;;;;;;4821803;29;20050;-84
2022/03/24 04:54:43;;;;;;;25.45;12.63;;;;;;;;;;4807794;29;20050;-86
2022/03/24 04:57:29;;;;;;;35.67;13.30;;;;;;;;;;4803805;29;20050;-88
2022/03/24 05:00:17;;;;;;;26.95;12.85;;;;;;;;;;4828160;29;20046;-86
2022/03/24 05:03:03;;;;;;;36.95;18.13;;;;;;;;;;4821843;29;20054;-85
2022/03/24 05:05:48;;;;;;;36.67;18.58;;;;;;;;;;4821283;29;20054;-87
2022/03/24 05:08:33;;;;;;;46.97;20.27;;;;;;;;;;4802308;29;20042;-88
2022/03/24 05:11:19;;;;;;;43.47;18.92;;;;;;;;;;4819053;29;20058;-85
2022/03/24 05:14:05;;;;;;;49.40;19.15;;;;;;;;;;4808121;29;20038;-83
2022/03/24 05:16:50;;;;;;;47.90;20.50;;;;;;;;;;4807852;29;20042;-85
2022/03/24 05:19:35;;;;;;;49.50;20.52;;;;;;;;;;4807050;29;20054;-85
2022/03/24 05:22:21;;;;;;;42.50;19.17;;;;;;;;;;4804665;29;20049;-87
2022/03/24 05:25:07;;;;;;;54.08;22.52;;;;;;;;;;4819086;29;20054;-86
2022/03/24 05:27:52;;;;;;;42.92;22.33;;;;;;;;;;4817869;29;20054;-85
2022/03/24 05:30:37;;;;;;;38.38;19.88;;;;;;;;;;4817552;29;20050;-88
2022/03/24 05:33:24;;;;;;;37.55;18.38;;;;;;;;;;4805759;29;20054;-86
2022/03/24 05:36:10;;;;;;;36.75;17.05;;;;;;;;;;4804794;29;20046;-87
2022/03/24 05:38:56;;;;;;;42.92;16.90;;;;;;;;;;4806087;29;20398;-84
2022/03/24 05:41:41;;;;;;;33.28;16.15;;;;;;;;;;4805108;29;20038;-86
2022/03/24 05:44:26;;;;;;;36.00;16.15;;;;;;;;;;4804701;29;20479;-85
2022/03/24 05:47:12;;;;;;;34.78;14.32;;;;;;;;;;4804816;29;20046;-85
2022/03/24 05:49:57;;;;;;;30.30;12.75;;;;;;;;;;4817628;29;20051;-85
2022/03/24 05:53:08;;;;;;;25.88;10.88;;;;;;;;;;4817563;29;20054;-85
2022/03/24 05:55:53;;;;;;;23.80;11.27;;;;;;;;;;4816124;29;20137;-83
2022/03/24 05:58:39;;;;;;;25.27;10.15;;;;;;;;;;4817322;29;20055;-85
2022/03/24 06:01:24;;;;;;;31.30;9.77;;;;;;;;;;4804559;29;20050;-83
2022/03/24 06:04:13;;;;;;;24.50;10.98;;;;;;;;;;4824938;29;20411;-87
2022/03/24 06:07:01;;;;;;;28.50;12.23;;;;;;;;;;4817206;29;20046;-86
2022/03/24 06:09:48;;;;;;;31.48;13.98;;;;;;;;;;4816817;29;20478;-82
2022/03/24 06:12:34;;;;;;;18.38;10.57;;;;;;;;;;4818346;29;20050;-84
2022/03/24 06:15:19;;;;;;;26.20;9.50;;;;;;;;;;4811508;29;20042;-82
2022/03/24 06:18:04;;;;;;;11.02;5.82;;;;;;;;;;4816154;29;20046;-83
2022/03/24 06:20:50;;;;;;;19.65;9.60;;;;;;;;;;4824871;29;20046;-84
2022/03/24 06:23:36;;;;;;;14.68;6.30;;;;;;;;;;4824652;29;20050;-83
2022/03/24 06:26:23;;;;;;;12.73;7.60;;;;;;;;;;4817142;29;20062;-86
2022/03/24 06:29:09;;;;;;;23.02;7.47;;;;;;;;;;4829714;29;20066;-83
2022/03/24 06:31:54;;;;;;;19.42;7.57;;;;;;;;;;4829416;29;20062;-83
2022/03/24 06:34:40;;;;;;;24.80;11.98;;;;;;;;;;4816831;29;20054;-82
2022/03/24 06:37:27;;;;;;;20.58;9.95;;;;;;;;;;4824672;29;20054;-83
2022/03/24 06:40:14;;;;;;;15.93;6.90;;;;;;;;;;4830265;29;20050;-83
2022/03/24 06:43:00;;;;;;;15.60;8.63;;;;;;;;;;4824270;29;20046;-84
2022/03/24 06:45:45;;;;;;;23.88;11.57;;;;;;;;;;4830066;29;20050;-82
2022/03/24 06:48:31;;;;;;;16.85;9.55;;;;;;;;;;4804244;29;20406;-85
2022/03/24 06:51:16;;;;;;;21.80;6.50;;;;;;;;;;4816800;29;20482;-83
2022/03/24 06:54:02;;;;;;;22.38;8.60;;;;;;;;;;4807388;29;20058;-81
2022/03/24 06:56:49;;;;;;;18.27;7.78;;;;;;;;;;4829927;29;20483;-84
2022/03/24 06:59:34;;;;;;;21.75;10.63;;;;;;;;;;4833555;29;20042;-83
2022/03/24 07:02:20;;;;;;;20.60;8.93;;;;;;;;;;4827728;29;20054;-82
2022/03/24 07:05:07;;;;;;;17.35;9.40;;;;;;;;;;4833986;29;20050;-85
2022/03/24 07:07:54;;;;;;;20.50;8.85;;;;;;;;;;4827837;29;20058;-84
2022/03/24 07:10:39;;;;;;;10.13;3.47;;;;;;;;;;4821006;29;20406;-84
2022/03/24 07:13:26;;;;;;;27.42;9.80;;;;;;;;;;4815514;29;20126;-84
2022/03/24 07:16:11;;;;;;;20.20;8.88;;;;;;;;;;4831611;29;20062;-82
2022/03/24 07:18:57;;;;;;;22.20;10.30;;;;;;;;;;4812045;29;20046;-83
2022/03/24 07:21:43;;;;;;;25.90;10.02;;;;;;;;;;4823510;29;20058;-83
2022/03/24 07:24:28;;;;;;;24.85;11.23;;;;;;;;;;4817144;29;20050;-81
2022/03/24 07:27:14;;;;;;;23.08;10.88;;;;;;;;;;4831738;29;20054;-84
2022/03/24 07:29:59;;;;;;;19.38;7.97;;;;;;;;;;4837290;29;20046;-83
2022/03/24 07:32:46;;;;;;;24.00;11.82;;;;;;;;;;4831107;29;20047;-85
2022/03/24 07:35:34;;;;;;;23.75;10.40;;;;;;;;;;4819157;29;20050;-82
2022/03/24 07:38:19;;;;;;;31.17;10.90;;;;;;;;;;4826681;29;20386;-84
2022/03/24 07:41:06;;;;;;;22.63;7.75;;;;;;;;;;4812616;29;20499;-84
2022/03/24 07:43:51;;;;;;;20.70;9.48;;;;;;;;;;4832185;29;20050;-84
2022/03/24 07:46:37;;;;;;;47.03;19.70;;;;;;;;;;4813220;29;20038;-83
2022/03/24 07:49:22;;;;;;;76.57;31.25;;;;;;;;;;4825291;29;20486;-83
2022/03/24 07:52:12;;;;;;;27.83;10.95;;;;;;;;;;4819239;29;20046;-86
2022/03/24 07:55:06;;;;;;;149.02;73.78;;;;;;;;;;4800639;29;20042;-84
2022/03/24 07:57:51;;;;;;;41.25;17.75;;;;;;;;;;4812763;29;20046;-84
2022/03/24 08:00:37;;;;;;;1257.15;711.70;;;;;;;;;;4812830;29;20046;-85
2022/03/24 08:03:22;;;;;;;28.98;11.35;;;;;;;;;;4812435;29;20066;-83
2022/03/24 08:06:08;;;;;;;346.08;251.02;;;;;;;;;;4818788;29;20054;-84
2022/03/24 08:08:53;;;;;;;20.38;9.60;;;;;;;;;;4818388;29;20054;-85
2022/03/24 08:11:38;;;;;;;33.15;12.05;;;;;;;;;;4832577;29;20480;-83
2022/03/24 08:14:24;;;;;;;19.60;11.10;;;;;;;;;;4818292;29;20056;-82
2022/03/24 08:17:09;;;;;;;27.55;10.07;;;;;;;;;;4818353;29;20483;-84
2022/03/24 08:19:55;;;;;;;27.02;11.20;;;;;;;;;;4805725;29;20058;-84
2022/03/24 08:22:40;;;;;;;17.52;9.52;;;;;;;;;;4805466;29;20058;-84
2022/03/24 08:25:26;;;;;;;31.80;10.90;;;;;;;;;;4805787;29;20054;-83
2022/03/24 08:28:13;;;;;;;33.03;12.40;;;;;;;;;;4818180;29;20066;-83
2022/03/24 08:30:58;;;;;;;27.80;11.35;;;;;;;;;;4805327;29;20061;-83
2022/03/24 08:33:44;;;;;;;24.15;11.90;;;;;;;;;;4832131;29;20042;-84
2022/03/24 08:36:29;;;;;;;26.17;11.27;;;;;;;;;;4831801;29;20046;-84
2022/03/24 08:39:15;;;;;;;23.15;10.38;;;;;;;;;;4818151;29;20454;-84
2022/03/24 08:42:01;;;;;;;18.88;7.95;;;;;;;;;;4818175;29;20054;-83
2022/03/24 08:44:46;;;;;;;25.95;9.40;;;;;;;;;;4811562;29;20435;-84
2022/03/24 08:47:32;;;;;;;24.48;10.60;;;;;;;;;;4825721;29;20058;-84
2022/03/24 08:50:18;;;;;;;29.95;11.73;;;;;;;;;;4805398;29;20058;-84
2022/03/24 08:53:04;;;;;;;28.58;11.25;;;;;;;;;;4805719;29;20053;-86
2022/03/24 08:55:49;;;;;;;22.17;11.18;;;;;;;;;;4811932;29;21190;-83
2022/03/24 08:58:35;;;;;;;28.42;10.98;;;;;;;;;;4830924;29;20067;-84
2022/03/24 09:01:21;;;;;;;31.83;10.80;;;;;;;;;;4799007;29;20050;-85
2022/03/24 09:04:06;;;;;;;21.83;11.52;;;;;;;;;;4817747;29;20058;-82
2022/03/24 09:06:52;;;;;;;24.67;11.30;;;;;;;;;;4811231;29;20213;-83
2022/03/24 09:09:37;;;;;;;31.48;11.38;;;;;;;;;;4811422;29;20054;-83
2022/03/24 09:12:24;;;;;;;26.95;11.65;;;;;;;;;;4804913;29;20039;-83
2022/03/24 09:15:10;;;;;;;32.80;11.15;;;;;;;;;;4811519;29;20468;-81
2022/03/24 09:17:56;;;;;;;20.02;8.88;;;;;;;;;;4830899;29;20050;-82
2022/03/24 09:20:42;;;;;;;21.75;8.77;;;;;;;;;;4830691;29;20406;-81
2022/03/24 09:23:28;;;;;;;12.95;6.18;;;;;;;;;;4825449;29;20055;-81
2022/03/24 09:26:14;;;;;;;16.95;7.97;;;;;;;;;;4824587;29;20050;-81
2022/03/24 09:29:01;;;;;;;26.95;11.32;;;;;;;;;;4831435;29;20046;-84
2022/03/24 09:31:47;;;;;;;21.00;10.35;;;;;;;;;;4830848;29;20055;-80
2022/03/24 09:34:31;;;;;;;16.77;8.15;;;;;;;;;;4830678;29;20219;-83
2022/03/24 09:37:18;;;;;;;20.58;8.90;;;;;;;;;;4830932;29;20054;-83
2022/03/24 09:40:06;;;;;;;17.45;8.43;;;;;;;;;;4824771;29;20054;-82
2022/03/24 09:42:52;;;;;;;17.73;8.00;;;;;;;;;;4825238;29;20051;-85
2022/03/24 09:45:38;;;;;;;11.73;5.50;;;;;;;;;;4831085;29;20406;-84
2022/03/24 09:48:24;;;;;;;6.28;2.78;;;;;;;;;;4830327;29;20054;-84
2022/03/24 09:51:09;;;;;;;9.20;4.82;;;;;;;;;;4830832;29;20054;-85
2022/03/24 09:53:55;;;;;;;23.30;6.35;;;;;;;;;;4830844;29;20046;-85
2022/03/24 09:56:41;;;;;;;20.25;7.90;;;;;;;;;;4827966;29;20059;-83
2022/03/24 09:59:26;;;;;;;14.30;6.25;;;;;;;;;;4824657;29;20051;-83
2022/03/24 10:02:12;;;;;;;23.23;5.93;;;;;;;;;;4816994;29;20054;-85
2022/03/24 10:05:08;;;;;;;10.73;3.10;;;;;;;;;;4817024;29;20050;-90
2022/03/24 10:07:54;;;;;;;18.45;6.25;;;;;;;;;;4816819;29;20058;-85
2022/03/24 10:10:43;;;;;;;16.95;5.13;;;;;;;;;;4830231;29;20054;-86
2022/03/24 10:13:54;;;;;;;10.77;4.90;;;;;;;;;;4804595;29;20046;-85
2022/03/24 10:16:41;;;;;;;18.25;6.22;;;;;;;;;;4810686;29;20046;-84
2022/03/24 10:19:30;;;;;;;24.20;7.00;;;;;;;;;;4804711;29;20050;-84
2022/03/24 10:22:28;;;;;;;17.52;4.72;;;;;;;;;;4804427;29;20058;-88
2022/03/24 10:25:25;;;;;;;15.40;5.82;;;;;;;;;;4815566;29;20050;-88
2022/03/24 10:28:19;;;;;;;14.02;5.50;;;;;;;;;;4811748;29;20042;-84
2022/03/24 10:31:04;;;;;;;12.63;4.93;;;;;;;;;;4820007;29;20351;-84
2022/03/24 10:33:50;;;;;;;12.90;6.20;;;;;;;;;;4827506;29;20487;-84
2022/03/24 10:36:35;;;;;;;15.32;6.47;;;;;;;;;;4833816;29;20390;-85
2022/03/24 10:39:25;;;;;;;14.07;6.15;;;;;;;;;;4833789;29;20058;-85
2022/03/24 10:42:18;;;;;;;10.88;5.22;;;;;;;;;;4820505;29;20055;-85
2022/03/24 10:45:06;;;;;;;16.70;5.47;;;;;;;;;;4828214;29;20479;-86
2022/03/24 10:47:58;;;;;;;12.27;5.30;;;;;;;;;;4817288;29;20050;-86
2022/03/24 10:50:44;;;;;;;11.15;4.55;;;;;;;;;;4822916;29;20038;-83
2022/03/24 10:53:38;;;;;;;17.70;5.40;;;;;;;;;;4828397;29;20042;-82
2022/03/24 10:56:30;;;;;;;10.40;5.10;;;;;;;;;;4819694;29;20054;-84
2022/03/24 10:59:16;;;;;;;9.00;4.95;;;;;;;;;;4827744;29;20042;-84
2022/03/24 11:02:02;;;;;;;17.42;5.78;;;;;;;;;;4819837;29;20050;-82
2022/03/24 11:04:48;;;;;;;13.15;5.40;;;;;;;;;;4827024;29;20046;-83
2022/03/24 11:07:33;;;;;;;12.27;5.72;;;;;;;;;;4833264;29;20500;-85
2022/03/24 11:10:19;;;;;;;15.60;5.75;;;;;;;;;;4827372;29;20042;-85
2022/03/24 11:13:05;;;;;;;8.85;4.70;;;;;;;;;;4827497;29;20050;-85
2022/03/24 11:15:52;;;;;;;18.58;5.40;;;;;;;;;;4833265;29;20054;-83
2022/03/24 11:18:38;;;;;;;13.75;6.07;;;;;;;;;;4819112;29;20046;-81
2022/03/24 11:21:58;;;;;;;20.75;5.90;;;;;;;;;;4821121;29;20054;-82
2022/03/24 11:24:43;;;;;;;14.27;5.55;;;;;;;;;;4806161;29;20463;-86
2022/03/24 11:27:30;;;;;;;18.73;4.68;;;;;;;;;;4813672;29;20054;-83
2022/03/24 11:30:17;;;;;;;10.15;5.22;;;;;;;;;;4827082;29;20054;-82
2022/03/24 11:33:03;;;;;;;12.27;5.90;;;;;;;;;;4832320;29;20050;-84
2022/03/24 11:35:49;;;;;;;14.05;5.72;;;;;;;;;;4826653;29;20054;-80
2022/03/24 11:38:38;;;;;;;11.50;4.03;;;;;;;;;;4832037;29;20054;-82
2022/03/24 11:41:37;;;;;;;12.40;5.32;;;;;;;;;;4832821;29;20054;-82
2022/03/24 11:44:48;;;;;;;8.85;4.93;;;;;;;;;;4832891;29;20095;-82
2022/03/24 11:47:54;;;;;;;9.13;4.63;;;;;;;;;;4831976;29;20502;-82
2022/03/24 11:50:50;;;;;;;10.50;5.75;;;;;;;;;;4826862;29;20483;-85
2022/03/24 11:53:39;;;;;;;12.40;4.93;;;;;;;;;;4832641;29;20046;-82
2022/03/24 11:56:25;;;;;;;18.27;5.35;;;;;;;;;;4830495;29;20050;-86
2022/03/24 11:59:10;;;;;;;10.90;4.10;;;;;;;;;;4832462;29;20475;-86
2022/03/24 12:02:31;;;;;;;10.60;3.72;;;;;;;;;;4833213;29;20403;-84
2022/03/24 12:05:17;;;;;;;8.20;4.45;;;;;;;;;;4770326;30;20416;-81
2022/03/24 12:08:05;;;;;;;27.10;9.80;;;;;;;;;;4824616;29;20503;-81
2022/03/24 12:10:50;;;;;;;28.40;10.13;;;;;;;;;;4825553;29;20042;-81
2022/03/24 12:13:36;;;;;;;15.82;6.20;;;;;;;;;;4827769;29;20042;-87
2022/03/24 12:16:25;;;;;;;11.27;4.90;;;;;;;;;;4840272;29;20054;-83
2022/03/24 12:19:41;;;;;;;7.10;3.80;;;;;;;;;;4838069;29;20046;-84
2022/03/24 12:22:28;;;;;;;11.02;5.22;;;;;;;;;;4833934;29;20058;-83
2022/03/24 12:25:13;;;;;;;53.22;19.27;;;;;;;;;;4825906;29;20050;-83
2022/03/24 12:28:09;;;;;;;15.10;5.43;;;;;;;;;;4831911;29;20058;-84
2022/03/24 12:31:05;;;;;;;27.42;8.43;;;;;;;;;;4831993;29;20050;-85
2022/03/24 12:33:49;;;;;;;11.07;5.03;;;;;;;;;;4812387;29;20502;-85
2022/03/24 12:36:40;;;;;;;29.15;7.68;;;;;;;;;;4831807;29;20046;-85
2022/03/24 12:39:37;;;;;;;22.40;6.70;;;;;;;;;;4825755;29;20051;-84
2022/03/24 12:42:23;;;;;;;17.88;7.78;;;;;;;;;;4825404;29;20486;-84
2022/03/24 12:45:10;;;;;;;13.98;4.22;;;;;;;;;;4817796;29;20054;-83
2022/03/24 12:48:05;;;;;;;13.63;4.88;;;;;;;;;;4825505;29;20051;-83
2022/03/24 12:50:51;;;;;;;13.82;4.90;;;;;;;;;;4824891;29;20054;-85
2022/03/24 12:54:19;;;;;;;14.75;6.00;;;;;;;;;;4811433;29;20046;-83
2022/03/24 12:57:28;;;;;;;14.05;6.22;;;;;;;;;;4806334;29;20050;-84
2022/03/24 13:00:17;;;;;;;26.00;6.00;;;;;;;;;;4825116;29;20050;-84
2022/03/24 13:03:05;;;;;;;11.88;5.10;;;;;;;;;;4816698;29;20046;-87
2022/03/24 13:05:53;;;;;;;10.60;4.95;;;;;;;;;;4825859;29;20046;-83
2022/03/24 13:08:39;;;;;;;10.15;5.03;;;;;;;;;;4817873;29;20491;-84
2022/03/24 13:11:25;;;;;;;14.48;6.20;;;;;;;;;;4818931;29;20046;-84
2022/03/24 13:14:11;;;;;;;16.08;5.43;;;;;;;;;;4811579;29;20047;-81
2022/03/24 13:17:00;;;;;;;13.02;5.07;;;;;;;;;;4798452;29;20479;-84
2022/03/24 13:19:49;;;;;;;9.63;4.43;;;;;;;;;;4811766;29;20054;-83
2022/03/24 13:22:34;;;;;;;11.93;5.55;;;;;;;;;;4817711;29;20050;-84
2022/03/24 13:25:26;;;;;;;9.75;3.90;;;;;;;;;;4804526;29;20054;-87
2022/03/24 13:28:11;;;;;;;12.82;5.10;;;;;;;;;;4803234;29;20761;-85
2022/03/24 13:30:56;;;;;;;14.70;5.25;;;;;;;;;;4809356;29;20046;-86
2022/03/24 13:33:52;;;;;;;24.00;6.03;;;;;;;;;;4817307;29;20046;-85
2022/03/24 13:36:38;;;;;;;16.95;5.50;;;;;;;;;;4804177;29;20046;-88
2022/03/24 13:39:33;;;;;;;8.48;4.97;;;;;;;;;;4819036;29;20053;-86
2022/03/24 13:42:21;;;;;;;20.08;6.03;;;;;;;;;;4803252;29;20054;-84
2022/03/24 13:45:08;;;;;;;20.23;5.53;;;;;;;;;;4816755;29;20038;-87
2022/03/24 13:48:12;;;;;;;10.73;4.88;;;;;;;;;;4820923;29;20431;-88
2022/03/24 13:51:05;;;;;;;20.73;5.53;;;;;;;;;;4815267;29;20042;-85
2022/03/24 13:53:49;;;;;;;18.13;5.43;;;;;;;;;;4809483;29;20042;-83
2022/03/24 13:56:34;;;;;;;26.58;7.10;;;;;;;;;;4821178;29;20058;-84
2022/03/24 13:59:28;;;;;;;11.23;4.88;;;;;;;;;;4795259;29;20046;-88
2022/03/24 14:02:27;;;;;;;21.23;5.70;;;;;;;;;;4803340;29;20054;-87
2022/03/24 14:05:14;;;;;;;11.25;4.43;;;;;;;;;;4807558;29;20057;-88
2022/03/24 14:08:00;;;;;;;15.10;4.90;;;;;;;;;;4812531;29;20038;-85
2022/03/24 14:11:23;;;;;;;11.95;5.25;;;;;;;;;;4819123;29;20046;-86
2022/03/24 14:14:16;;;;;;;15.55;5.82;;;;;;;;;;4840155;29;20042;-88
2022/03/24 14:17:12;;;;;;;16.65;5.38;;;;;;;;;;4817013;29;20405;-87
2022/03/24 14:19:58;;;;;;;9.85;4.57;;;;;;;;;;4818244;29;20486;-87
2022/03/24 14:22:47;;;;;;;12.75;5.20;;;;;;;;;;4812956;29;20058;-87
2022/03/24 14:25:32;;;;;;;15.73;5.80;;;;;;;;;;4812592;29;20042;-84
2022/03/24 14:28:32;;;;;;;11.30;5.13;;;;;;;;;;4818245;29;20046;-87
2022/03/24 14:31:19;;;;;;;11.10;4.97;;;;;;;;;;4819507;29;20061;-84
2022/03/24 14:34:16;;;;;;;11.57;5.32;;;;;;;;;;4820846;29;20058;-84
2022/03/24 14:37:14;;;;;;;18.80;5.80;;;;;;;;;;4807813;29;20050;-86
2022/03/24 14:40:03;;;;;;;16.83;5.55;;;;;;;;;;4807372;29;20038;-86
2022/03/24 14:53:13;;;;;;;34.72;8.50;;;;;;;;;;4718194;30;20049;-87
2022/03/24 14:56:05;;;;;;;24.30;6.85;;;;;;;;;;4713855;30;20056;-85
2022/03/24 14:58:53;;;;;;;16.17;6.50;;;;;;;;;;4751392;30;20048;-85
2022/03/24 15:02:25;;;;;;;15.75;7.15;;;;;;;;;;4750617;30;20044;-87
2022/03/24 15:05:11;;;;;;;44.72;8.05;;;;;;;;;;4738232;30;20040;-86
2022/03/24 15:07:55;;;;;;;21.27;7.70;;;;;;;;;;4769509;29;20046;-85
2022/03/24 15:10:41;;;;;;;15.93;7.18;;;;;;;;;;4820248;29;20058;-88
2022/03/24 15:13:27;;;;;;;16.70;8.02;;;;;;;;;;4804502;29;20042;-84
2022/03/24 15:16:12;;;;;;;21.15;7.07;;;;;;;;;;4819766;29;20050;-86
2022/03/24 15:18:58;;;;;;;24.75;8.45;;;;;;;;;;4810115;29;20046;-84
2022/03/24 15:21:44;;;;;;;29.33;8.18;;;;;;;;;;4822324;29;20502;-86
2022/03/24 15:24:40;;;;;;;;;;;;;;;;;;;;;
2022/03/24 15:27:32;;;;;;;17.80;7.75;;;;;;;;;;4809204;29;20046;-87
2022/03/24 15:30:17;;;;;;;14.68;6.50;;;;;;;;;;4805466;29;20490;-87
2022/03/24 15:33:07;;;;;;;23.95;7.60;;;;;;;;;;4818124;29;20403;-86
2022/03/24 15:35:52;;;;;;;14.15;7.15;;;;;;;;;;4805584;29;20050;-87
2022/03/24 15:38:38;;;;;;;14.20;7.45;;;;;;;;;;4806766;29;20407;-88
2022/03/24 15:41:24;;;;;;;11.93;5.75;;;;;;;;;;4806319;29;20062;-85
2022/03/24 15:44:09;;;;;;;19.23;7.10;;;;;;;;;;4818077;29;20050;-84
2022/03/24 15:46:56;;;;;;;16.08;7.40;;;;;;;;;;4827273;29;20050;-82
2022/03/24 15:49:43;;;;;;;16.35;5.85;;;;;;;;;;4810405;29;20054;-81
2022/03/24 15:52:30;;;;;;;15.38;6.50;;;;;;;;;;4808477;29;20050;-83
2022/03/24 15:55:17;;;;;;;28.15;7.63;;;;;;;;;;4840417;29;20047;-80
2022/03/24 15:58:03;;;;;;;17.08;9.10;;;;;;;;;;4803108;29;20063;-84
2022/03/24 16:01:08;;;;;;;14.80;7.13;;;;;;;;;;4822908;29;20050;-85
2022/03/24 16:03:57;;;;;;;33.58;9.00;;;;;;;;;;4798779;29;20055;-83
2022/03/24 16:06:42;;;;;;;27.77;12.07;;;;;;;;;;4779410;29;20054;-87
2022/03/24 16:09:27;;;;;;;26.10;10.80;;;;;;;;;;4813981;29;20058;-83
2022/03/24 16:12:14;;;;;;;22.13;12.25;;;;;;;;;;4816233;29;20059;-85
2022/03/24 16:14:58;;;;;;;35.97;14.75;;;;;;;;;;4831840;29;20054;-83
2022/03/24 16:17:43;;;;;;;28.05;14.93;;;;;;;;;;4839180;29;20050;-81
2022/03/24 16:20:29;;;;;;;28.73;13.25;;;;;;;;;;4848658;29;20054;-85
2022/03/24 16:23:15;;;;;;;39.65;18.75;;;;;;;;;;4849989;29;20791;-81
2022/03/24 16:26:03;;;;;;;39.00;16.83;;;;;;;;;;4840428;29;20041;-83
2022/03/24 16:28:49;;;;;;;39.13;19.35;;;;;;;;;;4834568;29;20438;-81
2022/03/24 16:31:35;;;;;;;40.15;20.98;;;;;;;;;;4838615;29;20065;-82
2022/03/24 16:34:20;;;;;;;45.03;20.23;;;;;;;;;;4841560;29;20054;-81